sensor_id;sensor_type;location;lat;lon;timestamp;pressure;altitude;pressure_sealevel;temperature;humidity
13695;BME280;6919;52.344;14.518;2023-05-12T00:00:46;100946.09;;;15.04;68.00
13695;BME280;6919;52.344;14.518;2023-05-12T00:03:14;100940.91;;;14.95;70.27
13695;BME280;6919;52.344;14.518;2023-05-12T00:05:43;100940.91;;;14.95;70.00
13695;BME280;6919;52.344;14.518;2023-05-12T00:08:11;100934.69;;;14.86;70.98
13695;BME280;6919;52.344;14.518;2023-05-12T00:10:40;100938.59;;;14.84;70.90
13695;BME280;6919;52.344;14.518;2023-05-12T00:13:09;100929.88;;;14.65;74.20
13695;BME280;6919;52.344;14.518;2023-05-12T00:15:37;100927.16;;;14.65;73.38
13695;BME280;6919;52.344;14.518;2023-05-12T00:18:05;100928.88;;;14.42;77.61
13695;BME280;6919;52.344;14.518;2023-05-12T00:20:34;100929.00;;;14.65;74.61
13695;BME280;6919;52.344;14.518;2023-05-12T00:23:02;100926.13;;;14.66;73.18
13695;BME280;6919;52.344;14.518;2023-05-12T00:25:30;100926.34;;;14.57;73.36
13695;BME280;6919;52.344;14.518;2023-05-12T00:28:00;100920.78;;;14.58;74.15
13695;BME280;6919;52.344;14.518;2023-05-12T00:30:28;100927.19;;;14.49;75.24
13695;BME280;6919;52.344;14.518;2023-05-12T00:32:56;100924.50;;;14.49;77.10
13695;BME280;6919;52.344;14.518;2023-05-12T00:35:25;100929.06;;;14.49;75.91
13695;BME280;6919;52.344;14.518;2023-05-12T00:37:53;100931.94;;;14.47;76.29
13695;BME280;6919;52.344;14.518;2023-05-12T00:40:22;100934.97;;;14.36;77.09
13695;BME280;6919;52.344;14.518;2023-05-12T00:42:50;100929.22;;;14.39;77.59
13695;BME280;6919;52.344;14.518;2023-05-12T00:45:19;100937.16;;;14.33;79.04
13695;BME280;6919;52.344;14.518;2023-05-12T00:47:50;100935.13;;;14.27;79.47
13695;BME280;6919;52.344;14.518;2023-05-12T00:50:20;100935.28;;;14.25;81.60
13695;BME280;6919;52.344;14.518;2023-05-12T00:52:49;100938.47;;;14.13;82.90
13695;BME280;6919;52.344;14.518;2023-05-12T00:55:17;100935.44;;;14.16;83.41
13695;BME280;6919;52.344;14.518;2023-05-12T00:57:46;100928.88;;;14.10;83.21
13695;BME280;6919;52.344;14.518;2023-05-12T01:00:15;100931.25;;;14.05;84.85
13695;BME280;6919;52.344;14.518;2023-05-12T01:02:45;100943.19;;;13.95;85.73
13695;BME280;6919;52.344;14.518;2023-05-12T01:05:14;100933.94;;;13.81;88.80
13695;BME280;6919;52.344;14.518;2023-05-12T01:07:45;100939.47;;;13.88;87.90
13695;BME280;6919;52.344;14.518;2023-05-12T01:10:17;100942.50;;;13.77;90.62
13695;BME280;6919;52.344;14.518;2023-05-12T01:12:46;100947.19;;;13.67;93.09
13695;BME280;6919;52.344;14.518;2023-05-12T01:15:16;100941.31;;;13.55;95.51
13695;BME280;6919;52.344;14.518;2023-05-12T01:17:51;100940.78;;;13.60;95.95
13695;BME280;6919;52.344;14.518;2023-05-12T01:20:24;100940.75;;;13.44;96.39
13695;BME280;6919;52.344;14.518;2023-05-12T01:22:54;100944.69;;;13.65;94.74
13695;BME280;6919;52.344;14.518;2023-05-12T01:25:24;100938.13;;;13.68;92.21
13695;BME280;6919;52.344;14.518;2023-05-12T01:27:55;100945.84;;;13.55;92.33
13695;BME280;6919;52.344;14.518;2023-05-12T01:30:24;100939.41;;;13.40;95.53
13695;BME280;6919;52.344;14.518;2023-05-12T01:32:53;100937.13;;;13.19;100.00
13695;BME280;6919;52.344;14.518;2023-05-12T01:35:22;100937.81;;;13.21;100.00
13695;BME280;6919;52.344;14.518;2023-05-12T01:37:50;100948.44;;;13.31;98.53
13695;BME280;6919;52.344;14.518;2023-05-12T01:40:19;100950.66;;;13.27;99.51
13695;BME280;6919;52.344;14.518;2023-05-12T01:42:48;100944.38;;;13.19;100.00
13695;BME280;6919;52.344;14.518;2023-05-12T01:45:18;100947.72;;;13.13;100.00
13695;BME280;6919;52.344;14.518;2023-05-12T01:47:46;100951.22;;;13.05;100.00
13695;BME280;6919;52.344;14.518;2023-05-12T01:50:14;100953.97;;;12.88;100.00
13695;BME280;6919;52.344;14.518;2023-05-12T01:52:43;100962.22;;;12.94;100.00
13695;BME280;6919;52.344;14.518;2023-05-12T01:55:12;100959.69;;;12.93;100.00
13695;BME280;6919;52.344;14.518;2023-05-12T01:57:40;100959.38;;;12.96;100.00
13695;BME280;6919;52.344;14.518;2023-05-12T02:00:10;100960.69;;;12.92;100.00
13695;BME280;6919;52.344;14.518;2023-05-12T02:02:40;100966.41;;;12.89;100.00
13695;BME280;6919;52.344;14.518;2023-05-12T02:05:09;100961.19;;;12.87;100.00
13695;BME280;6919;52.344;14.518;2023-05-12T02:07:38;100961.78;;;12.73;100.00
13695;BME280;6919;52.344;14.518;2023-05-12T02:10:08;100963.41;;;12.66;100.00
13695;BME280;6919;52.344;14.518;2023-05-12T02:12:36;100972.56;;;12.48;100.00
13695;BME280;6919;52.344;14.518;2023-05-12T02:15:06;100965.16;;;12.50;100.00
13695;BME280;6919;52.344;14.518;2023-05-12T02:17:34;100969.88;;;12.48;100.00
13695;BME280;6919;52.344;14.518;2023-05-12T02:20:06;100966.22;;;12.31;100.00
13695;BME280;6919;52.344;14.518;2023-05-12T02:22:34;100970.44;;;12.16;100.00
13695;BME280;6919;52.344;14.518;2023-05-12T02:25:03;100974.75;;;12.09;100.00
13695;BME280;6919;52.344;14.518;2023-05-12T02:27:31;100968.16;;;12.04;100.00
13695;BME280;6919;52.344;14.518;2023-05-12T02:29:59;100970.38;;;12.08;100.00
13695;BME280;6919;52.344;14.518;2023-05-12T02:32:28;100969.22;;;12.11;100.00
13695;BME280;6919;52.344;14.518;2023-05-12T02:34:56;100962.72;;;11.96;100.00
13695;BME280;6919;52.344;14.518;2023-05-12T02:37:25;100968.69;;;11.89;100.00
13695;BME280;6919;52.344;14.518;2023-05-12T02:39:54;100973.63;;;11.76;100.00
13695;BME280;6919;52.344;14.518;2023-05-12T02:42:22;100973.78;;;11.75;100.00
13695;BME280;6919;52.344;14.518;2023-05-12T02:44:50;100963.41;;;11.62;100.00
13695;BME280;6919;52.344;14.518;2023-05-12T02:47:18;100969.59;;;11.63;100.00
13695;BME280;6919;52.344;14.518;2023-05-12T02:49:46;100973.31;;;11.52;100.00
13695;BME280;6919;52.344;14.518;2023-05-12T02:52:14;100967.88;;;11.44;100.00
13695;BME280;6919;52.344;14.518;2023-05-12T02:54:44;100971.53;;;11.43;100.00
13695;BME280;6919;52.344;14.518;2023-05-12T02:57:12;100968.09;;;11.51;100.00
13695;BME280;6919;52.344;14.518;2023-05-12T02:59:40;100970.97;;;11.67;100.00
13695;BME280;6919;52.344;14.518;2023-05-12T03:02:08;100967.31;;;11.68;100.00
13695;BME280;6919;52.344;14.518;2023-05-12T03:04:37;100968.28;;;11.67;100.00
13695;BME280;6919;52.344;14.518;2023-05-12T03:07:05;100964.22;;;11.63;100.00
13695;BME280;6919;52.344;14.518;2023-05-12T03:09:33;100970.72;;;11.60;100.00
13695;BME280;6919;52.344;14.518;2023-05-12T03:12:04;100968.69;;;11.72;100.00
13695;BME280;6919;52.344;14.518;2023-05-12T03:14:32;100968.47;;;11.56;100.00
13695;BME280;6919;52.344;14.518;2023-05-12T03:17:00;100971.94;;;11.48;100.00
13695;BME280;6919;52.344;14.518;2023-05-12T03:19:28;100972.84;;;11.39;100.00
13695;BME280;6919;52.344;14.518;2023-05-12T03:21:57;100973.91;;;11.46;100.00
13695;BME280;6919;52.344;14.518;2023-05-12T03:24:25;100981.97;;;11.19;100.00
13695;BME280;6919;52.344;14.518;2023-05-12T03:26:54;100976.31;;;10.95;100.00
13695;BME280;6919;52.344;14.518;2023-05-12T03:29:24;100971.97;;;10.85;100.00
13695;BME280;6919;52.344;14.518;2023-05-12T03:31:52;100981.41;;;10.98;100.00
13695;BME280;6919;52.344;14.518;2023-05-12T03:34:20;100989.97;;;11.02;100.00
13695;BME280;6919;52.344;14.518;2023-05-12T03:36:49;100982.66;;;10.94;100.00
13695;BME280;6919;52.344;14.518;2023-05-12T03:39:17;100988.22;;;10.83;100.00
13695;BME280;6919;52.344;14.518;2023-05-12T03:41:45;100979.22;;;10.65;100.00
13695;BME280;6919;52.344;14.518;2023-05-12T03:44:13;100987.31;;;10.56;100.00
13695;BME280;6919;52.344;14.518;2023-05-12T03:46:43;100982.22;;;10.53;100.00
13695;BME280;6919;52.344;14.518;2023-05-12T03:49:11;100982.25;;;10.43;100.00
13695;BME280;6919;52.344;14.518;2023-05-12T03:51:39;100981.53;;;10.41;100.00
13695;BME280;6919;52.344;14.518;2023-05-12T03:54:08;100986.63;;;10.44;100.00
13695;BME280;6919;52.344;14.518;2023-05-12T03:56:36;100982.78;;;10.47;100.00
13695;BME280;6919;52.344;14.518;2023-05-12T03:59:04;100988.16;;;10.56;100.00
13695;BME280;6919;52.344;14.518;2023-05-12T04:01:33;100979.63;;;10.80;100.00
13695;BME280;6919;52.344;14.518;2023-05-12T04:04:03;100984.09;;;10.89;100.00
13695;BME280;6919;52.344;14.518;2023-05-12T04:06:31;100983.75;;;11.01;100.00
13695;BME280;6919;52.344;14.518;2023-05-12T04:09:00;100992.41;;;11.22;100.00
13695;BME280;6919;52.344;14.518;2023-05-12T04:11:28;100999.75;;;11.30;100.00
13695;BME280;6919;52.344;14.518;2023-05-12T04:13:57;100997.41;;;11.44;100.00
13695;BME280;6919;52.344;14.518;2023-05-12T04:16:25;101006.06;;;11.56;100.00
13695;BME280;6919;52.344;14.518;2023-05-12T04:18:53;101011.44;;;11.65;100.00
13695;BME280;6919;52.344;14.518;2023-05-12T04:21:24;101012.50;;;11.72;100.00
13695;BME280;6919;52.344;14.518;2023-05-12T04:23:52;101008.03;;;11.91;100.00
13695;BME280;6919;52.344;14.518;2023-05-12T04:26:20;101008.16;;;11.89;100.00
13695;BME280;6919;52.344;14.518;2023-05-12T04:28:49;101009.16;;;12.06;100.00
13695;BME280;6919;52.344;14.518;2023-05-12T04:31:17;101009.38;;;12.12;100.00
13695;BME280;6919;52.344;14.518;2023-05-12T04:33:45;101016.91;;;12.26;100.00
13695;BME280;6919;52.344;14.518;2023-05-12T04:36:14;101019.19;;;12.39;100.00
13695;BME280;6919;52.344;14.518;2023-05-12T04:38:43;101016.34;;;12.58;100.00
13695;BME280;6919;52.344;14.518;2023-05-12T04:41:12;101016.25;;;12.67;100.00
13695;BME280;6919;52.344;14.518;2023-05-12T04:43:40;101019.25;;;12.64;100.00
13695;BME280;6919;52.344;14.518;2023-05-12T04:46:12;101027.94;;;12.84;100.00
13695;BME280;6919;52.344;14.518;2023-05-12T04:48:40;101022.69;;;13.00;100.00
13695;BME280;6919;52.344;14.518;2023-05-12T04:51:09;101023.81;;;13.15;100.00
13695;BME280;6919;52.344;14.518;2023-05-12T04:53:37;101031.09;;;13.72;100.00
13695;BME280;6919;52.344;14.518;2023-05-12T04:56:07;101030.09;;;13.81;100.00
13695;BME280;6919;52.344;14.518;2023-05-12T04:58:35;101032.91;;;14.21;100.00
13695;BME280;6919;52.344;14.518;2023-05-12T05:01:04;101028.38;;;14.29;100.00
13695;BME280;6919;52.344;14.518;2023-05-12T05:03:32;101035.25;;;14.80;100.00
13695;BME280;6919;52.344;14.518;2023-05-12T05:06:01;101032.91;;;14.85;100.00
13695;BME280;6919;52.344;14.518;2023-05-12T05:08:29;101035.94;;;14.98;100.00
13695;BME280;6919;52.344;14.518;2023-05-12T05:10:57;101033.88;;;15.00;100.00
13695;BME280;6919;52.344;14.518;2023-05-12T05:13:27;101041.13;;;15.00;100.00
13695;BME280;6919;52.344;14.518;2023-05-12T05:15:55;101046.44;;;15.48;93.45
13695;BME280;6919;52.344;14.518;2023-05-12T05:18:23;101043.19;;;14.98;97.70
13695;BME280;6919;52.344;14.518;2023-05-12T05:20:52;101038.13;;;15.57;95.08
13695;BME280;6919;52.344;14.518;2023-05-12T05:23:25;101039.44;;;15.15;98.19
13695;BME280;6919;52.344;14.518;2023-05-12T05:25:53;101045.44;;;15.87;91.11
13695;BME280;6919;52.344;14.518;2023-05-12T05:28:22;101044.78;;;16.08;81.37
13695;BME280;6919;52.344;14.518;2023-05-12T05:30:51;101047.91;;;15.97;86.85
13695;BME280;6919;52.344;14.518;2023-05-12T05:33:19;101054.47;;;16.02;86.84
13695;BME280;6919;52.344;14.518;2023-05-12T05:35:48;101048.75;;;16.50;82.14
13695;BME280;6919;52.344;14.518;2023-05-12T05:38:16;101050.22;;;16.75;77.49
13695;BME280;6919;52.344;14.518;2023-05-12T05:40:44;101055.31;;;16.70;78.50
13695;BME280;6919;52.344;14.518;2023-05-12T05:43:20;101059.63;;;17.16;75.64
13695;BME280;6919;52.344;14.518;2023-05-12T05:45:48;101047.25;;;16.85;73.24
13695;BME280;6919;52.344;14.518;2023-05-12T05:48:18;101061.50;;;16.64;80.22
13695;BME280;6919;52.344;14.518;2023-05-12T05:50:47;101059.19;;;16.53;81.28
13695;BME280;6919;52.344;14.518;2023-05-12T05:53:15;101062.81;;;16.83;75.99
13695;BME280;6919;52.344;14.518;2023-05-12T05:55:44;101067.97;;;16.92;77.50
13695;BME280;6919;52.344;14.518;2023-05-12T05:58:13;101076.34;;;17.05;79.19
13695;BME280;6919;52.344;14.518;2023-05-12T06:00:42;101079.25;;;16.67;78.58
13695;BME280;6919;52.344;14.518;2023-05-12T06:03:10;101077.59;;;16.80;80.13
13695;BME280;6919;52.344;14.518;2023-05-12T06:05:41;101067.88;;;16.86;79.67
13695;BME280;6919;52.344;14.518;2023-05-12T06:08:09;101071.28;;;17.02;78.48
13695;BME280;6919;52.344;14.518;2023-05-12T06:10:39;101070.06;;;16.90;80.19
13695;BME280;6919;52.344;14.518;2023-05-12T06:13:08;101074.97;;;17.24;76.85
13695;BME280;6919;52.344;14.518;2023-05-12T06:15:37;101071.34;;;17.31;72.26
13695;BME280;6919;52.344;14.518;2023-05-12T06:18:05;101072.38;;;17.60;73.28
13695;BME280;6919;52.344;14.518;2023-05-12T06:20:34;101069.75;;;17.52;75.17
13695;BME280;6919;52.344;14.518;2023-05-12T06:23:03;101065.69;;;17.91;74.09
13695;BME280;6919;52.344;14.518;2023-05-12T06:25:32;101070.47;;;17.89;68.33
13695;BME280;6919;52.344;14.518;2023-05-12T06:28:00;101076.22;;;18.15;72.52
13695;BME280;6919;52.344;14.518;2023-05-12T06:30:29;101074.09;;;18.32;68.16
13695;BME280;6919;52.344;14.518;2023-05-12T06:32:57;101074.66;;;18.42;68.43
13695;BME280;6919;52.344;14.518;2023-05-12T06:35:25;101077.44;;;18.34;70.84
13695;BME280;6919;52.344;14.518;2023-05-12T06:37:53;101076.97;;;18.66;64.67
13695;BME280;6919;52.344;14.518;2023-05-12T06:40:23;101076.03;;;18.17;63.87
13695;BME280;6919;52.344;14.518;2023-05-12T06:42:51;101073.06;;;18.33;65.11
13695;BME280;6919;52.344;14.518;2023-05-12T06:45:19;101076.88;;;18.74;63.18
13695;BME280;6919;52.344;14.518;2023-05-12T06:47:49;101080.47;;;18.81;64.25
13695;BME280;6919;52.344;14.518;2023-05-12T06:50:18;101082.38;;;18.87;62.37
13695;BME280;6919;52.344;14.518;2023-05-12T06:52:46;101083.38;;;18.37;63.55
13695;BME280;6919;52.344;14.518;2023-05-12T06:55:14;101081.41;;;18.46;69.64
13695;BME280;6919;52.344;14.518;2023-05-12T06:57:47;101075.75;;;18.89;67.75
13695;BME280;6919;52.344;14.518;2023-05-12T07:00:18;101084.28;;;18.86;66.68
13695;BME280;6919;52.344;14.518;2023-05-12T07:02:46;101079.66;;;18.87;72.37
13695;BME280;6919;52.344;14.518;2023-05-12T07:05:14;101080.91;;;19.12;66.35
13695;BME280;6919;52.344;14.518;2023-05-12T07:07:44;101077.03;;;19.21;66.06
13695;BME280;6919;52.344;14.518;2023-05-12T07:10:13;101079.34;;;19.51;66.61
13695;BME280;6919;52.344;14.518;2023-05-12T07:12:41;101077.13;;;19.68;66.61
13695;BME280;6919;52.344;14.518;2023-05-12T07:15:11;101080.59;;;19.49;61.03
13695;BME280;6919;52.344;14.518;2023-05-12T07:17:39;101082.94;;;19.99;59.42
13695;BME280;6919;52.344;14.518;2023-05-12T07:20:08;101081.66;;;19.95;59.17
13695;BME280;6919;52.344;14.518;2023-05-12T07:22:37;101083.09;;;20.38;56.47
13695;BME280;6919;52.344;14.518;2023-05-12T07:25:06;101081.03;;;20.53;58.04
13695;BME280;6919;52.344;14.518;2023-05-12T07:27:34;101071.31;;;20.18;60.95
13695;BME280;6919;52.344;14.518;2023-05-12T07:30:04;101079.75;;;20.43;61.58
13695;BME280;6919;52.344;14.518;2023-05-12T07:32:34;101081.06;;;19.59;61.18
13695;BME280;6919;52.344;14.518;2023-05-12T07:35:03;101072.69;;;19.26;66.61
13695;BME280;6919;52.344;14.518;2023-05-12T07:37:31;101070.47;;;19.36;67.36
13695;BME280;6919;52.344;14.518;2023-05-12T07:39:59;101078.75;;;19.96;67.48
13695;BME280;6919;52.344;14.518;2023-05-12T07:42:28;101070.19;;;20.06;60.30
13695;BME280;6919;52.344;14.518;2023-05-12T07:44:56;101071.41;;;20.70;60.35
13695;BME280;6919;52.344;14.518;2023-05-12T07:47:24;101063.84;;;21.50;46.55
13695;BME280;6919;52.344;14.518;2023-05-12T07:49:56;101070.69;;;21.85;44.72
13695;BME280;6919;52.344;14.518;2023-05-12T07:52:24;101074.41;;;22.04;44.47
13695;BME280;6919;52.344;14.518;2023-05-12T07:54:54;101069.75;;;22.11;41.98
13695;BME280;6919;52.344;14.518;2023-05-12T07:57:22;101062.19;;;22.06;40.99
13695;BME280;6919;52.344;14.518;2023-05-12T07:59:50;101064.50;;;22.09;41.09
13695;BME280;6919;52.344;14.518;2023-05-12T08:02:19;101067.44;;;22.01;42.29
13695;BME280;6919;52.344;14.518;2023-05-12T08:04:47;101071.88;;;22.02;40.65
13695;BME280;6919;52.344;14.518;2023-05-12T08:07:18;101073.94;;;22.07;40.99
13695;BME280;6919;52.344;14.518;2023-05-12T08:09:47;101069.47;;;22.19;40.65
13695;BME280;6919;52.344;14.518;2023-05-12T08:12:15;101082.50;;;22.23;39.54
13695;BME280;6919;52.344;14.518;2023-05-12T08:14:43;101075.75;;;22.26;37.75
13695;BME280;6919;52.344;14.518;2023-05-12T08:17:11;101078.84;;;22.36;37.92
13695;BME280;6919;52.344;14.518;2023-05-12T08:19:40;101082.56;;;22.48;38.30
13695;BME280;6919;52.344;14.518;2023-05-12T08:22:08;101078.91;;;22.60;35.89
13695;BME280;6919;52.344;14.518;2023-05-12T08:24:37;101074.31;;;22.54;35.91
13695;BME280;6919;52.344;14.518;2023-05-12T08:27:06;101074.16;;;22.49;34.71
13695;BME280;6919;52.344;14.518;2023-05-12T08:29:34;101074.75;;;22.51;35.82
13695;BME280;6919;52.344;14.518;2023-05-12T08:32:03;101079.94;;;22.28;36.29
13695;BME280;6919;52.344;14.518;2023-05-12T08:34:31;101077.50;;;22.51;35.86
13695;BME280;6919;52.344;14.518;2023-05-12T08:36:59;101077.69;;;22.56;34.81
13695;BME280;6919;52.344;14.518;2023-05-12T08:39:28;101072.69;;;22.47;34.05
13695;BME280;6919;52.344;14.518;2023-05-12T08:42:08;101077.56;;;22.38;34.06
13695;BME280;6919;52.344;14.518;2023-05-12T08:44:39;101078.56;;;22.44;34.64
13695;BME280;6919;52.344;14.518;2023-05-12T08:47:08;101078.97;;;22.47;34.58
13695;BME280;6919;52.344;14.518;2023-05-12T08:49:39;101078.78;;;22.49;34.15
13695;BME280;6919;52.344;14.518;2023-05-12T08:52:13;101084.56;;;22.65;33.32
13695;BME280;6919;52.344;14.518;2023-05-12T08:54:44;101088.31;;;22.71;32.32
13695;BME280;6919;52.344;14.518;2023-05-12T08:57:24;101083.44;;;22.48;33.55
13695;BME280;6919;52.344;14.518;2023-05-12T08:59:56;101080.69;;;22.48;33.69
13695;BME280;6919;52.344;14.518;2023-05-12T09:02:27;101082.16;;;22.75;33.08
13695;BME280;6919;52.344;14.518;2023-05-12T09:05:14;101078.34;;;22.83;32.89
13695;BME280;6919;52.344;14.518;2023-05-12T09:07:43;101076.19;;;22.85;33.06
13695;BME280;6919;52.344;14.518;2023-05-12T09:10:16;101073.00;;;22.63;33.09
13695;BME280;6919;52.344;14.518;2023-05-12T09:13:07;101077.59;;;22.69;33.72
13695;BME280;6919;52.344;14.518;2023-05-12T09:15:43;101083.59;;;22.84;32.09
13695;BME280;6919;52.344;14.518;2023-05-12T09:18:12;101077.69;;;22.81;34.24
13695;BME280;6919;52.344;14.518;2023-05-12T09:20:40;101071.13;;;22.88;33.07
13695;BME280;6919;52.344;14.518;2023-05-12T09:23:14;101072.28;;;22.74;32.29
13695;BME280;6919;52.344;14.518;2023-05-12T09:25:42;101080.78;;;22.91;33.22
13695;BME280;6919;52.344;14.518;2023-05-12T09:28:12;101075.88;;;23.00;32.00
13695;BME280;6919;52.344;14.518;2023-05-12T09:30:40;101075.97;;;22.86;31.17
13695;BME280;6919;52.344;14.518;2023-05-12T09:33:10;101072.13;;;22.69;31.86
13695;BME280;6919;52.344;14.518;2023-05-12T09:35:40;101077.13;;;22.72;32.02
13695;BME280;6919;52.344;14.518;2023-05-12T09:38:11;101075.16;;;23.11;33.26
13695;BME280;6919;52.344;14.518;2023-05-12T09:40:42;101081.34;;;23.00;30.88
13695;BME280;6919;52.344;14.518;2023-05-12T09:43:12;101078.25;;;22.96;30.75
13695;BME280;6919;52.344;14.518;2023-05-12T09:45:41;101076.16;;;22.92;31.32
13695;BME280;6919;52.344;14.518;2023-05-12T09:48:12;101075.53;;;22.89;32.37
13695;BME280;6919;52.344;14.518;2023-05-12T09:50:45;101070.88;;;22.65;32.05
13695;BME280;6919;52.344;14.518;2023-05-12T09:53:15;101082.22;;;22.93;32.33
13695;BME280;6919;52.344;14.518;2023-05-12T09:55:46;101074.25;;;22.92;32.29
13695;BME280;6919;52.344;14.518;2023-05-12T09:58:18;101079.81;;;23.10;31.22
13695;BME280;6919;52.344;14.518;2023-05-12T10:00:46;101078.94;;;23.10;31.80
13695;BME280;6919;52.344;14.518;2023-05-12T10:03:23;101068.53;;;23.00;31.16
13695;BME280;6919;52.344;14.518;2023-05-12T10:05:57;101082.16;;;23.31;32.42
13695;BME280;6919;52.344;14.518;2023-05-12T10:08:33;101071.72;;;23.22;31.92
13695;BME280;6919;52.344;14.518;2023-05-12T10:11:04;101068.09;;;23.03;31.98
13695;BME280;6919;52.344;14.518;2023-05-12T10:13:34;101067.53;;;22.95;32.98
13695;BME280;6919;52.344;14.518;2023-05-12T10:16:04;101063.06;;;23.00;34.29
13695;BME280;6919;52.344;14.518;2023-05-12T10:18:33;101075.03;;;22.99;31.77
13695;BME280;6919;52.344;14.518;2023-05-12T10:21:03;101066.81;;;22.99;31.75
13695;BME280;6919;52.344;14.518;2023-05-12T10:23:33;101059.34;;;23.13;31.70
13695;BME280;6919;52.344;14.518;2023-05-12T10:26:05;101066.13;;;23.10;32.42
13695;BME280;6919;52.344;14.518;2023-05-12T10:28:34;101060.19;;;23.13;31.79
13695;BME280;6919;52.344;14.518;2023-05-12T10:31:05;101059.13;;;22.89;31.69
13695;BME280;6919;52.344;14.518;2023-05-12T10:33:34;101058.41;;;23.01;32.29
13695;BME280;6919;52.344;14.518;2023-05-12T10:36:03;101063.91;;;23.19;32.50
13695;BME280;6919;52.344;14.518;2023-05-12T10:38:35;101055.31;;;23.15;31.62
13695;BME280;6919;52.344;14.518;2023-05-12T10:41:05;101056.13;;;23.22;33.08
13695;BME280;6919;52.344;14.518;2023-05-12T10:43:40;101045.88;;;23.54;30.73
13695;BME280;6919;52.344;14.518;2023-05-12T10:46:16;101057.16;;;23.46;30.76
13695;BME280;6919;52.344;14.518;2023-05-12T10:48:53;101064.59;;;23.39;30.78
13695;BME280;6919;52.344;14.518;2023-05-12T10:51:25;101053.81;;;23.44;31.68
13695;BME280;6919;52.344;14.518;2023-05-12T10:53:58;101050.22;;;23.43;31.76
13695;BME280;6919;52.344;14.518;2023-05-12T10:56:28;101045.66;;;23.37;32.07
13695;BME280;6919;52.344;14.518;2023-05-12T10:59:12;101060.53;;;23.23;31.57
13695;BME280;6919;52.344;14.518;2023-05-12T11:01:42;101042.50;;;23.16;31.54
13695;BME280;6919;52.344;14.518;2023-05-12T11:04:36;101048.97;;;23.21;31.61
13695;BME280;6919;52.344;14.518;2023-05-12T11:07:08;101050.91;;;23.39;31.51
13695;BME280;6919;52.344;14.518;2023-05-12T11:09:40;101044.06;;;23.30;31.45
13695;BME280;6919;52.344;14.518;2023-05-12T11:12:26;101037.75;;;23.29;32.55
13695;BME280;6919;52.344;14.518;2023-05-12T11:14:58;101029.00;;;23.39;32.03
13695;BME280;6919;52.344;14.518;2023-05-12T11:17:26;101045.22;;;23.58;31.81
13695;BME280;6919;52.344;14.518;2023-05-12T11:19:55;101043.69;;;23.62;32.01
13695;BME280;6919;52.344;14.518;2023-05-12T11:22:24;101029.84;;;23.39;32.08
13695;BME280;6919;52.344;14.518;2023-05-12T11:24:52;101033.94;;;23.30;32.57
13695;BME280;6919;52.344;14.518;2023-05-12T11:27:21;101035.91;;;23.41;33.09
13695;BME280;6919;52.344;14.518;2023-05-12T11:30:00;101020.56;;;23.58;32.18
13695;BME280;6919;52.344;14.518;2023-05-12T11:32:30;101040.56;;;23.77;32.55
13695;BME280;6919;52.344;14.518;2023-05-12T11:35:08;101044.53;;;23.81;31.86
13695;BME280;6919;52.344;14.518;2023-05-12T11:37:38;101037.53;;;23.85;32.06
13695;BME280;6919;52.344;14.518;2023-05-12T11:40:18;101046.13;;;23.88;33.42
13695;BME280;6919;52.344;14.518;2023-05-12T11:42:49;101040.13;;;23.80;31.40
13695;BME280;6919;52.344;14.518;2023-05-12T11:45:22;101036.69;;;23.66;32.49
13695;BME280;6919;52.344;14.518;2023-05-12T11:47:52;101045.44;;;23.93;32.21
13695;BME280;6919;52.344;14.518;2023-05-12T11:50:22;101044.00;;;23.72;31.70
13695;BME280;6919;52.344;14.518;2023-05-12T11:52:52;101042.03;;;23.43;32.70
13695;BME280;6919;52.344;14.518;2023-05-12T11:55:23;101048.94;;;23.46;32.63
13695;BME280;6919;52.344;14.518;2023-05-12T11:57:58;101043.91;;;23.61;31.70
13695;BME280;6919;52.344;14.518;2023-05-12T12:00:30;101045.06;;;23.89;33.52
13695;BME280;6919;52.344;14.518;2023-05-12T12:03:08;101030.06;;;24.10;32.45
13695;BME280;6919;52.344;14.518;2023-05-12T12:05:38;101037.19;;;24.29;33.81
13695;BME280;6919;52.344;14.518;2023-05-12T12:08:10;101043.44;;;24.59;31.92
13695;BME280;6919;52.344;14.518;2023-05-12T12:10:43;101043.78;;;24.51;31.50
13695;BME280;6919;52.344;14.518;2023-05-12T12:13:12;101035.41;;;24.05;31.23
13695;BME280;6919;52.344;14.518;2023-05-12T12:15:41;101043.16;;;23.72;32.88
13695;BME280;6919;52.344;14.518;2023-05-12T12:18:10;101042.94;;;24.09;32.33
13695;BME280;6919;52.344;14.518;2023-05-12T12:20:38;101044.16;;;24.25;31.67
13695;BME280;6919;52.344;14.518;2023-05-12T12:23:06;101048.31;;;24.75;30.17
13695;BME280;6919;52.344;14.518;2023-05-12T12:25:34;101043.78;;;24.51;30.69
13695;BME280;6919;52.344;14.518;2023-05-12T12:28:03;101056.94;;;24.01;31.80
13695;BME280;6919;52.344;14.518;2023-05-12T12:30:32;101040.41;;;24.08;31.62
13695;BME280;6919;52.344;14.518;2023-05-12T12:33:02;101047.91;;;24.30;30.73
13695;BME280;6919;52.344;14.518;2023-05-12T12:35:30;101050.09;;;24.40;31.85
13695;BME280;6919;52.344;14.518;2023-05-12T12:37:58;101036.50;;;24.86;30.50
13695;BME280;6919;52.344;14.518;2023-05-12T12:40:27;101050.72;;;25.17;30.78
13695;BME280;6919;52.344;14.518;2023-05-12T12:42:55;101046.56;;;25.49;30.09
13695;BME280;6919;52.344;14.518;2023-05-12T12:45:23;101046.63;;;25.78;29.25
13695;BME280;6919;52.344;14.518;2023-05-12T12:47:52;101041.59;;;26.54;30.93
13695;BME280;6919;52.344;14.518;2023-05-12T12:50:22;101041.66;;;27.58;27.44
13695;BME280;6919;52.344;14.518;2023-05-12T12:52:53;101042.31;;;26.77;27.61
13695;BME280;6919;52.344;14.518;2023-05-12T12:55:21;101040.53;;;27.21;26.05
13695;BME280;6919;52.344;14.518;2023-05-12T12:57:50;101044.00;;;27.49;26.62
13695;BME280;6919;52.344;14.518;2023-05-12T13:00:19;101045.66;;;28.10;26.94